Time;durP1;ratioP1;P1;durP2;ratioP2;P2;SDS_P1;SDS_P2;PMS_P1;PMS_P2;Temp;Humidity;BMP_temperature;BMP_pressure;BME280_temperature;BME280_humidity;BME280_pressure;Samples;Min_cycle;Max_cycle;Signal;HPM_P1;HPM_P2
2021/04/11 00:01:36;;;;;;;4.78;4.38;;;10.30;99.90;;;11.24;71.32;97269.09;5169974;28;20245;-54
2021/04/11 00:04:09;;;;;;;5.20;4.70;;;10.30;99.90;;;11.27;71.83;97266.72;5174866;28;20235;-53
2021/04/11 00:06:41;;;;;;;6.07;5.15;;;10.30;99.90;;;11.24;71.99;97276.78;5165450;28;20734;-54
2021/04/11 00:09:13;;;;;;;5.93;5.03;;;10.30;99.90;;;11.23;72.03;97269.91;5165881;28;20666;-53
2021/04/11 00:11:45;;;;;;;5.22;4.82;;;10.30;99.90;;;11.23;71.97;97269.91;5165854;28;20209;-54
2021/04/11 00:14:17;;;;;;;5.55;5.05;;;10.20;99.90;;;11.21;72.13;97270.66;5165825;28;20218;-52
2021/04/11 00:16:50;;;;;;;5.88;5.38;;;10.20;99.90;;;11.18;72.39;97271.38;5169333;28;20721;-52
2021/04/11 00:19:22;;;;;;;5.95;5.45;;;10.20;99.90;;;11.22;72.55;97265.63;5172219;28;20205;-53
2021/04/11 00:21:54;;;;;;;5.70;5.10;;;10.20;99.90;;;11.18;72.86;97266.28;5169703;28;20277;-52
2021/04/11 00:24:27;;;;;;;5.68;5.20;;;10.20;99.90;;;11.16;73.05;97262.78;5185289;28;20226;-55
2021/04/11 00:26:59;;;;;;;6.30;5.70;;;10.20;99.90;;;11.15;72.91;97258.47;5181189;28;20577;-56
2021/04/11 00:29:31;;;;;;;5.43;4.97;;;10.20;99.90;;;11.10;73.02;97262.47;5164794;28;20641;-55
2021/04/11 00:32:07;;;;;;;5.82;5.38;;;10.20;99.90;;;11.05;72.52;97257.19;5165558;28;20306;-57
2021/04/11 00:34:39;;;;;;;4.95;4.65;;;10.10;99.90;;;11.07;72.45;97259.78;5163766;28;20270;-55
2021/04/11 00:37:12;;;;;;;5.28;4.88;;;10.20;99.90;;;11.09;73.09;97255.63;5164846;28;20446;-56
2021/04/11 00:39:44;;;;;;;5.40;5.00;;;10.10;99.90;;;11.14;72.66;97251.59;5181373;28;20205;-55
2021/04/11 00:42:21;;;;;;;5.13;4.63;;;10.20;99.90;;;11.12;72.88;97255.78;5181361;28;20202;-55
2021/04/11 00:45:13;;;;;;;5.97;5.43;;;10.10;99.90;;;11.08;72.87;97256.44;5181151;28;20221;-57
2021/04/11 00:47:46;;;;;;;5.40;4.85;;;10.10;99.90;;;11.07;72.87;97252.13;5158650;28;20685;-55
2021/04/11 00:50:19;;;;;;;5.38;4.95;;;10.20;99.90;;;11.07;72.78;97257.22;5165636;28;20195;-53
2021/04/11 00:52:52;;;;;;;5.15;4.78;;;10.10;99.90;;;11.04;73.08;97246.88;5183764;28;20278;-56
2021/04/11 00:55:26;;;;;;;5.60;5.10;;;10.10;99.90;;;11.05;73.02;97246.09;5183358;28;20721;-56
2021/04/11 00:57:58;;;;;;;5.57;5.18;;;10.10;99.90;;;11.00;73.04;97245.00;5166828;28;20205;-58
2021/04/11 01:00:34;;;;;;;6.90;6.15;;;10.00;99.90;;;11.01;72.75;97237.38;5180963;28;20684;-57
2021/04/11 01:03:07;;;;;;;6.28;5.68;;;10.00;99.90;;;10.95;73.17;97241.34;5173307;28;20226;-56
2021/04/11 01:05:41;;;;;;;6.60;5.72;;;10.00;99.90;;;10.91;73.05;97250.56;5182912;28;20236;-56
2021/04/11 01:08:23;;;;;;;5.45;4.95;;;10.00;99.90;;;10.81;73.21;97230.47;5184556;28;20241;-55
2021/04/11 01:11:04;;;;;;;5.25;4.80;;;9.90;99.90;;;10.80;73.31;97237.28;5168468;28;20344;-55
2021/04/11 01:13:43;;;;;;;5.45;4.95;;;9.80;99.90;;;10.75;73.61;97235.31;5165486;28;20459;-56
2021/04/11 01:16:17;;;;;;;5.20;4.80;;;9.80;99.90;;;10.72;73.13;97236.06;5163998;28;20201;-57
2021/04/11 01:18:50;;;;;;;5.72;5.30;;;9.80;99.90;;;10.66;72.91;97240.88;5175961;28;20682;-57
2021/04/11 01:21:33;;;;;;;5.10;4.60;;;9.70;99.90;;;10.56;73.63;97239.59;5184832;28;20305;-55
2021/04/11 01:24:16;;;;;;;5.15;4.75;;;9.60;99.90;;;10.45;73.67;97242.44;5183658;28;20665;-56
2021/04/11 01:26:53;;;;;;;5.60;5.20;;;9.50;99.90;;;10.39;73.93;97235.38;5172214;28;20663;-56
2021/04/11 01:29:25;;;;;;;4.73;4.43;;;9.40;99.90;;;10.28;73.33;97239.97;5144340;28;20785;-56
2021/04/11 01:31:58;;;;;;;5.68;5.05;;;9.30;99.90;;;10.24;74.29;97235.44;5168506;28;20203;-54
2021/04/11 01:34:30;;;;;;;5.00;4.70;;;9.20;99.90;;;10.15;73.81;97248.66;5177103;28;20214;-55
2021/04/11 01:37:03;;;;;;;5.27;4.87;;;9.10;99.90;;;10.05;74.80;97240.50;5184671;28;20210;-57
2021/04/11 01:39:40;;;;;;;5.23;4.93;;;9.00;99.90;;;10.04;73.66;97241.28;5183031;28;20201;-54
2021/04/11 01:42:15;;;;;;;6.03;4.80;;;9.00;99.90;;;10.00;74.47;97239.38;5182574;28;20296;-56
2021/04/11 01:44:50;;;;;;;4.80;4.50;;;8.90;99.90;;;9.92;74.43;97242.41;5176934;28;20228;-57
2021/04/11 01:47:23;;;;;;;5.10;4.60;;;8.90;99.90;;;9.84;74.70;97233.53;5188546;28;20643;-53
2021/04/11 01:49:55;;;;;;;4.53;4.13;;;8.90;99.90;;;9.79;73.90;97232.44;5182662;28;20209;-56
2021/04/11 01:52:30;;;;;;;5.07;4.67;;;8.90;99.90;;;9.85;74.05;97229.31;5188513;28;20202;-54
2021/04/11 01:55:04;;;;;;;4.53;4.23;;;8.90;99.90;;;9.81;74.24;97225.69;5174549;28;20223;-56
2021/04/11 01:57:38;;;;;;;5.47;5.07;;;8.90;99.90;;;9.84;74.03;97223.34;5187256;28;20209;-56
2021/04/11 02:00:20;;;;;;;4.60;4.30;;;8.90;99.90;;;9.85;73.89;97219.97;5170998;28;20294;-58
2021/04/11 02:02:56;;;;;;;4.80;4.50;;;8.90;99.90;;;9.84;74.48;97210.56;5171032;28;20226;-56
2021/04/11 02:05:29;;;;;;;4.70;4.30;;;8.90;99.90;;;9.87;74.13;97208.16;5172499;28;20199;-58
2021/04/11 02:08:02;;;;;;;5.17;4.73;;;8.90;99.90;;;9.89;73.57;97214.19;5171063;28;20294;-56
2021/04/11 02:10:36;;;;;;;4.93;4.53;;;8.90;99.90;;;9.86;74.30;97208.06;5172043;28;20286;-52
2021/04/11 02:13:09;;;;;;;4.73;4.33;;;8.90;99.90;;;9.91;73.79;97216.84;5187969;28;20721;-53
2021/04/11 02:15:45;;;;;;;5.13;4.67;;;9.00;99.90;;;9.96;73.80;97211.94;5169669;28;20310;-53
2021/04/11 02:18:18;;;;;;;4.33;3.97;;;9.10;99.90;;;10.00;73.47;97201.97;5167154;28;20203;-55
2021/04/11 02:20:52;;;;;;;5.33;4.10;;;9.10;99.90;;;10.02;73.62;97196.94;5175241;28;20290;-54
2021/04/11 02:23:26;;;;;;;5.50;4.30;;;9.10;99.90;;;10.06;73.94;97199.69;5187679;28;20233;-57
2021/04/11 02:25:59;;;;;;;5.17;4.67;;;9.10;99.90;;;10.04;74.04;97193.63;5181187;28;20651;-56
2021/04/11 02:28:32;;;;;;;4.93;4.47;;;9.10;99.90;;;10.04;74.04;97197.88;5166345;28;20295;-53
2021/04/11 02:31:17;;;;;;;4.40;4.10;;;9.20;99.90;;;10.06;73.03;97196.28;5184424;28;20208;-56
2021/04/11 02:34:00;;;;;;;4.90;4.50;;;9.10;99.90;;;10.06;73.71;97191.16;5180562;28;20222;-56
2021/04/11 02:36:38;;;;;;;4.43;4.10;;;9.20;99.90;;;10.02;73.97;97190.16;5169998;28;20538;-55
2021/04/11 02:39:15;;;;;;;4.60;4.30;;;9.10;99.90;;;10.05;74.24;97179.22;5183856;28;20208;-56
2021/04/11 02:41:48;;;;;;;4.43;4.13;;;9.10;99.90;;;10.03;73.85;97180.81;5186107;28;20289;-56
2021/04/11 02:44:21;;;;;;;4.67;4.27;;;9.10;99.90;;;10.03;74.35;97185.94;5174104;28;20713;-57
2021/04/11 02:46:54;;;;;;;4.53;4.20;;;9.10;99.90;;;10.10;74.21;97185.41;5167020;28;20203;-52
2021/04/11 02:49:26;;;;;;;5.00;4.50;;;9.10;99.90;;;10.14;72.67;97189.88;5167123;28;20196;-54
2021/04/11 02:52:01;;;;;;;4.63;4.23;;;9.10;99.90;;;10.06;73.75;97184.38;5168578;28;20195;-55
2021/04/11 02:54:36;;;;;;;4.30;4.00;;;9.10;99.90;;;9.98;74.14;97185.69;5166329;28;20230;-55
2021/04/11 02:57:08;;;;;;;4.73;4.30;;;9.00;99.90;;;9.95;74.10;97182.13;5175046;28;20198;-52
2021/04/11 02:59:41;;;;;;;4.40;4.20;;;9.00;99.90;;;9.92;73.97;97182.84;5173652;28;20221;-53
2021/04/11 03:02:14;;;;;;;4.33;3.97;;;9.00;99.90;;;9.95;74.05;97177.88;5184936;28;20642;-54
2021/04/11 03:04:46;;;;;;;4.93;4.63;;;9.00;99.90;;;9.97;74.07;97177.97;5172240;28;20223;-53
2021/04/11 03:07:25;;;;;;;4.60;4.20;;;9.00;99.90;;;9.99;74.81;97181.47;5146299;28;20203;-55
2021/04/11 03:10:03;;;;;;;4.63;4.27;;;9.00;99.90;;;9.99;75.05;97174.69;5152493;28;20206;-54
2021/04/11 03:12:37;;;;;;;4.40;4.10;;;9.00;99.90;;;9.96;74.55;97179.66;5184225;28;20278;-53
2021/04/11 03:15:12;;;;;;;4.80;4.40;;;9.00;99.90;;;9.93;75.16;97179.50;5172154;28;20214;-56
2021/04/11 03:17:50;;;;;;;4.70;4.30;;;9.00;99.90;;;9.93;74.66;97185.47;5185101;28;20230;-52
2021/04/11 03:20:29;;;;;;;4.50;4.20;;;9.00;99.90;;;10.00;74.28;97185.78;5170703;28;20190;-54
2021/04/11 03:23:10;;;;;;;4.23;3.93;;;9.00;99.90;;;9.99;74.29;97178.94;5185946;28;20315;-53
2021/04/11 03:25:42;;;;;;;4.73;4.40;;;9.00;99.90;;;10.00;75.46;97175.56;5184279;28;20221;-52
2021/04/11 03:28:22;;;;;;;5.03;4.63;;;9.10;99.90;;;10.00;74.87;97175.56;5181223;28;20619;-54
2021/04/11 03:31:03;;;;;;;4.67;4.27;;;9.10;99.90;;;10.02;75.56;97174.84;5167290;28;20195;-55
2021/04/11 03:33:39;;;;;;;4.43;4.13;;;9.10;99.90;;;10.06;75.25;97178.41;5166362;28;20242;-56
2021/04/11 03:36:16;;;;;;;4.57;4.23;;;9.10;99.90;;;10.07;75.23;97177.59;5174800;28;20285;-56
2021/04/11 03:38:49;;;;;;;4.93;4.53;;;9.10;99.90;;;10.03;74.50;97173.16;5186221;28;20202;-54
2021/04/11 03:41:21;;;;;;;4.63;4.33;;;9.10;99.90;;;10.04;74.56;97177.44;5176606;28;20282;-54
2021/04/11 03:43:55;;;;;;;4.87;4.53;;;9.10;99.90;;;10.02;74.83;97184.19;5166902;28;20750;-56
2021/04/11 03:46:33;;;;;;;4.93;4.50;;;9.10;99.90;;;9.98;74.72;97189.91;5165865;28;20194;-55
2021/04/11 03:49:15;;;;;;;4.60;4.20;;;9.00;99.90;;;10.01;76.04;97182.41;5172129;28;20205;-56
2021/04/11 03:51:49;;;;;;;5.90;5.30;;;9.00;99.90;;;9.95;76.04;97179.56;5179142;28;20200;-56
2021/04/11 03:54:27;;;;;;;4.40;4.00;;;9.00;99.90;;;9.98;75.42;97183.13;5181300;28;20293;-56
2021/04/11 03:57:09;;;;;;;4.27;3.97;;;9.00;99.90;;;9.99;76.16;97176.38;5179810;28;20229;-54
2021/04/11 03:59:46;;;;;;;4.67;4.13;;;9.00;99.90;;;9.97;75.94;97181.41;5183595;28;20194;-56
2021/04/11 04:02:23;;;;;;;5.67;3.83;;;9.00;99.90;;;9.96;74.94;97183.84;5167915;28;20195;-56
2021/04/11 04:04:56;;;;;;;4.93;4.53;;;9.00;99.90;;;9.91;75.29;97187.09;5176617;28;20233;-53
2021/04/11 04:07:29;;;;;;;4.83;4.43;;;9.00;99.90;;;9.91;75.83;97181.97;5183135;28;20199;-52
2021/04/11 04:10:05;;;;;;;4.90;4.60;;;9.00;99.90;;;9.96;75.54;97178.75;5178615;28;20282;-56
2021/04/11 04:12:59;;;;;;;4.93;4.43;;;9.00;99.90;;;9.92;76.20;97178.59;5166497;28;20551;-56
2021/04/11 04:15:43;;;;;;;4.97;4.60;;;9.00;99.90;;;9.91;76.22;97188.75;5166060;28;20199;-52
2021/04/11 04:18:46;;;;;;;4.93;4.63;;;9.00;99.90;;;9.90;76.30;97187.00;5165094;28;20209;-55
2021/04/11 04:21:32;;;;;;;5.10;4.70;;;9.00;99.90;;;9.90;76.09;97187.88;5166633;28;20625;-55
2021/04/11 04:24:22;;;;;;;5.37;4.90;;;9.00;99.90;;;9.93;76.34;97190.59;5165945;28;20227;-56
2021/04/11 04:27:00;;;;;;;4.80;4.50;;;9.00;99.90;;;9.95;76.32;97185.53;5166303;28;20221;-55
2021/04/11 04:29:37;;;;;;;5.10;4.43;;;9.00;99.90;;;9.98;76.39;97187.38;5165545;28;20722;-57
2021/04/11 04:32:31;;;;;;;4.23;3.93;;;9.00;99.90;;;9.93;76.45;97185.47;5165584;28;20230;-56
2021/04/11 04:35:15;;;;;;;4.53;4.23;;;9.00;99.90;;;9.90;76.54;97184.44;5165745;28;20207;-56
2021/04/11 04:37:59;;;;;;;4.73;4.33;;;9.00;99.90;;;9.89;76.59;97196.31;5181217;28;20198;-54
2021/04/11 04:40:46;;;;;;;4.17;3.87;;;9.00;99.90;;;9.93;76.64;97194.81;5182346;28;20289;-54
2021/04/11 04:43:26;;;;;;;4.50;4.20;;;9.00;99.90;;;9.95;77.14;97197.44;5165194;28;20230;-54
2021/04/11 04:46:10;;;;;;;4.53;4.17;;;9.00;99.90;;;9.97;77.67;97180.53;5176337;28;20226;-56
2021/04/11 04:49:02;;;;;;;4.87;4.30;;;9.00;99.90;;;9.90;77.42;97184.44;5173288;28;20582;-56
2021/04/11 04:51:43;;;;;;;4.43;4.03;;;9.00;99.90;;;9.87;76.92;97185.19;5167105;28;20297;-57
2021/04/11 04:54:28;;;;;;;4.97;4.37;;;9.00;99.90;;;9.90;77.20;97190.44;5176226;28;20644;-53
2021/04/11 04:57:08;;;;;;;5.23;4.60;;;9.00;99.90;;;9.89;77.47;97188.66;5165397;28;20639;-56
2021/04/11 04:59:49;;;;;;;6.83;5.10;;;9.00;99.90;;;9.90;76.80;97180.22;5164611;28;20203;-56
2021/04/11 05:02:25;;;;;;;5.30;4.90;;;9.00;99.90;;;9.91;76.55;97181.97;5172364;28;20666;-54
2021/04/11 05:05:01;;;;;;;5.03;4.63;;;9.00;99.90;;;9.96;76.50;97184.75;5164575;28;20219;-54
2021/04/11 05:07:40;;;;;;;5.33;4.93;;;9.00;99.90;;;9.97;77.11;97185.63;5159231;28;20658;-55
2021/04/11 05:10:18;;;;;;;5.50;5.00;;;9.00;99.90;;;9.97;77.11;97186.50;5165413;28;20201;-56
2021/04/11 05:12:57;;;;;;;5.37;4.97;;;9.00;99.90;;;10.05;76.30;97187.75;5183238;28;20206;-56
2021/04/11 05:15:36;;;;;;;5.40;5.00;;;9.10;99.90;;;10.03;77.03;97188.47;5173126;28;20647;-56
2021/04/11 05:18:14;;;;;;;5.00;4.60;;;9.10;99.90;;;10.03;76.69;97184.25;5164019;28;20218;-56
2021/04/11 05:20:54;;;;;;;5.00;4.60;;;9.10;99.90;;;10.04;77.25;97185.09;5173472;28;20202;-53
2021/04/11 05:23:32;;;;;;;4.77;4.40;;;9.10;99.90;;;10.07;77.25;97187.81;5182829;28;20226;-56
2021/04/11 05:26:09;;;;;;;4.33;4.03;;;9.10;99.90;;;10.10;76.49;97183.75;5217228;23;20221;-61
2021/04/11 05:28:49;;;;;;;5.00;4.60;;;9.10;99.90;;;10.12;77.16;97181.25;5212109;28;20225;-62
2021/04/11 05:31:27;;;;;;;5.77;5.27;;;9.10;99.90;;;10.10;76.58;97177.72;5204738;28;20300;-62
2021/04/11 05:34:01;;;;;;;5.77;5.37;;;9.10;99.90;;;10.14;76.63;97179.66;5204988;28;20204;-61
2021/04/11 05:36:46;;;;;;;5.80;5.20;;;9.20;99.90;;;10.21;75.67;97175.69;5183675;28;20328;-61
2021/04/11 05:39:32;;;;;;;5.87;5.23;;;9.30;99.90;;;10.29;75.61;97179.53;5174504;28;20282;-61
2021/04/11 05:42:21;;;;;;;6.00;5.60;;;9.40;99.90;;;10.45;74.01;97182.00;5182140;28;20198;-61
2021/04/11 05:44:57;;;;;;;5.67;5.17;;;9.50;99.90;;;10.50;74.57;97178.00;5178433;28;20675;-61
2021/04/11 05:47:44;;;;;;;5.37;4.97;;;9.60;99.90;;;10.57;74.32;97184.25;5163616;28;20301;-61
2021/04/11 05:50:21;;;;;;;5.10;4.60;;;9.60;99.90;;;10.63;74.16;97187.06;5181591;28;20198;-61
2021/04/11 05:53:02;;;;;;;5.15;4.75;;;9.70;99.90;;;10.72;73.45;97184.94;5184163;28;20190;-61
2021/04/11 05:55:39;;;;;;;5.47;4.97;;;9.80;99.90;;;10.87;73.26;97189.84;5183928;28;20253;-61
2021/04/11 05:58:17;;;;;;;5.17;4.83;;;9.90;99.90;;;10.97;73.00;97191.16;5167634;28;20686;-61
2021/04/11 06:00:54;;;;;;;5.17;4.60;;;10.00;99.90;;;11.02;73.61;97182.88;5164235;28;20231;-61
2021/04/11 06:03:28;;;;;;;6.68;6.18;;;10.00;99.90;;;11.09;73.10;97189.13;5165839;28;20282;-61
2021/04/11 06:06:13;;;;;;;7.07;6.57;;;10.00;99.90;;;11.22;73.15;97186.31;5183256;28;20210;-60
2021/04/11 06:08:59;;;;;;;6.85;6.25;;;10.20;99.90;;;11.39;72.80;97184.50;5179876;28;20287;-62
2021/04/11 06:11:38;;;;;;;6.40;5.80;;;10.30;99.90;;;11.53;71.99;97192.72;5179062;28;20199;-60
2021/04/11 06:14:16;;;;;;;6.65;6.15;;;10.40;99.90;;;11.69;71.61;97187.44;5164416;28;20207;-61
2021/04/11 06:16:49;;;;;;;7.15;6.50;;;10.60;99.90;;;11.70;70.17;97181.53;5182758;28;20202;-61
2021/04/11 06:19:22;;;;;;;6.40;5.80;;;10.60;99.90;;;11.76;70.35;97182.59;5183267;28;20674;-59
2021/04/11 06:22:02;;;;;;;6.53;5.93;;;10.60;99.90;;;11.75;69.83;97184.28;5181518;28;20198;-61
2021/04/11 06:24:49;;;;;;;6.40;5.88;;;10.60;99.90;;;11.84;70.05;97182.09;5182718;28;20225;-61
2021/04/11 06:27:40;;;;;;;5.68;5.28;;;10.70;99.90;;;11.86;70.29;97189.88;5181913;28;20190;-61
2021/04/11 06:30:17;;;;;;;7.07;6.47;;;10.70;99.90;;;11.86;70.53;97182.19;5173881;28;20278;-61
2021/04/11 06:32:55;;;;;;;7.65;6.95;;;10.80;99.90;;;12.05;69.53;97184.69;5187464;28;20202;-62
2021/04/11 06:35:37;;;;;;;7.18;6.57;;;10.90;99.90;;;12.00;69.79;97183.63;5185945;28;20224;-62
2021/04/11 06:38:12;;;;;;;6.40;5.90;;;10.90;99.90;;;12.02;69.20;97182.00;5179188;28;20205;-62
2021/04/11 06:41:31;;;;;;;6.50;6.00;;;10.80;99.90;;;12.13;69.46;97178.19;5186161;28;20194;-62
2021/04/11 06:44:42;;;;;;;7.22;6.63;;;11.00;99.90;;;12.25;68.35;97167.56;5186979;28;20230;-62
2021/04/11 06:48:10;;;;;;;6.57;6.00;;;11.10;99.90;;;12.33;68.84;97171.28;5146597;28;20319;-62
2021/04/11 06:51:13;;;;;;;6.22;5.72;;;11.20;99.90;;;12.37;68.04;97167.16;5184561;28;20249;-62
2021/04/11 06:54:09;;;;;;;6.55;5.90;;;11.30;99.90;;;12.43;67.70;97164.81;5184930;28;20197;-62
2021/04/11 06:57:03;;;;;;;6.32;5.82;;;11.30;99.90;;;12.63;67.34;97163.88;5182661;28;20202;-61
2021/04/11 07:00:03;;;;;;;5.35;4.85;;;11.40;99.90;;;12.55;65.88;97156.72;5185823;28;20203;-61
2021/04/11 07:03:34;;;;;;;5.90;5.40;;;11.50;99.90;;;12.76;64.69;97161.78;5185321;28;20301;-61
2021/04/11 07:07:20;;;;;;;4.97;4.47;;;11.70;99.90;;;13.49;64.43;97156.72;5184256;28;20584;-61
2021/04/11 07:10:12;;;;;;;5.82;5.32;;;12.20;99.90;;;14.40;61.22;97150.25;5144344;28;20667;-62
2021/04/11 07:13:45;;;;;;;6.43;5.63;;;13.00;99.90;;;15.51;57.37;97158.59;5184827;28;20560;-61
2021/04/11 07:16:42;;;;;;;5.72;5.25;;;13.60;99.90;;;16.27;54.69;97151.91;5103267;29;20305;-62
2021/04/11 07:19:42;;;;;;;5.70;5.20;;;14.20;99.90;;;16.47;53.30;97157.50;5131350;28;20636;-62
2021/04/11 07:23:13;;;;;;;6.20;5.60;;;14.60;99.90;;;16.40;53.75;97151.34;5175753;28;20195;-63
2021/04/11 07:26:18;;;;;;;6.07;5.53;;;14.50;99.90;;;16.38;53.12;97159.88;5185202;28;20226;-63
2021/04/11 07:29:03;;;;;;;7.03;6.32;;;14.60;99.90;;;16.09;54.03;97157.50;5159881;28;20650;-63
2021/04/11 07:31:51;;;;;;;7.20;6.10;;;14.50;99.90;;;15.91;54.72;97155.34;5185617;28;20229;-64
2021/04/11 07:34:57;;;;;;;5.55;5.13;;;14.40;99.90;;;15.81;55.03;97163.66;5178540;28;20687;-63
2021/04/11 07:38:02;;;;;;;5.53;5.03;;;14.30;99.90;;;15.85;55.18;97157.78;5175143;28;20198;-63
2021/04/11 07:40:54;;;;;;;5.32;4.93;;;14.40;99.90;;;15.83;54.99;97161.16;5181819;28;20650;-62
2021/04/11 07:43:38;;;;;;;6.03;5.10;;;14.40;99.90;;;15.76;56.12;97160.09;5180428;28;20203;-63
2021/04/11 07:46:43;;;;;;;5.97;4.78;;;14.40;99.90;;;15.78;56.03;97155.88;5179392;28;20233;-63
2021/04/11 07:49:35;;;;;;;4.85;4.50;;;14.40;99.90;;;15.78;55.51;97163.59;5174482;28;20612;-63
2021/04/11 07:52:33;;;;;;;5.28;4.88;;;14.40;99.90;;;15.64;55.54;97160.63;5184352;28;20202;-62
2021/04/11 07:55:20;;;;;;;5.95;4.50;;;14.30;99.90;;;15.63;56.01;97165.75;5180098;28;20305;-61
2021/04/11 07:58:36;;;;;;;5.00;4.60;;;14.30;99.90;;;15.60;56.15;97161.41;5181853;28;20290;-63
2021/04/11 08:01:48;;;;;;;5.43;4.93;;;14.30;99.90;;;15.66;56.26;97158.97;5169832;28;20652;-63
2021/04/11 08:04:51;;;;;;;4.68;4.25;;;14.40;99.90;;;15.79;56.20;97164.47;5171520;28;20694;-64
2021/04/11 08:07:37;;;;;;;4.72;4.43;;;14.60;99.90;;;15.97;55.82;97170.97;5183568;28;20212;-62
2021/04/11 08:10:33;;;;;;;5.25;4.72;;;14.60;99.90;;;15.96;55.31;97169.19;5182829;28;20545;-63
2021/04/11 08:13:17;;;;;;;4.82;4.45;;;14.70;99.90;;;16.00;55.15;97165.00;5175782;28;20230;-62
2021/04/11 08:15:59;;;;;;;5.55;4.95;;;14.70;99.90;;;16.12;55.47;97165.31;5180180;28;20210;-61
2021/04/11 08:19:31;;;;;;;4.93;4.57;;;14.80;99.90;;;16.30;55.21;97166.56;5170916;28;20575;-62
2021/04/11 08:22:25;;;;;;;5.38;4.88;;;15.00;99.90;;;16.50;54.40;97170.47;5178584;28;20216;-62
2021/04/11 08:25:12;;;;;;;4.95;4.65;;;15.20;99.90;;;16.77;54.23;97164.19;5183595;28;20232;-62
2021/04/11 08:28:13;;;;;;;5.35;4.95;;;15.60;99.90;;;17.03;54.08;97167.34;5178364;28;20634;-62
2021/04/11 08:31:07;;;;;;;5.80;4.18;;;15.90;99.90;;;17.27;52.28;97175.56;5178315;28;20237;-62
2021/04/11 08:34:26;;;;;;;9.73;8.82;;;16.10;99.90;;;17.43;49.55;97176.75;5173303;28;20298;-62
2021/04/11 08:37:28;;;;;;;7.65;6.95;;;16.10;98.90;;;17.47;50.05;97177.69;5136717;28;20210;-62
2021/04/11 08:40:16;;;;;;;3.75;3.45;;;16.20;98.70;;;17.67;47.85;97167.72;5163777;28;20202;-62
2021/04/11 08:43:14;;;;;;;3.25;2.95;;;16.30;96.10;;;17.83;46.75;97172.34;5163387;28;20206;-62
2021/04/11 08:46:21;;;;;;;2.72;2.58;;;16.50;96.00;;;17.86;46.61;97167.22;5164485;28;20547;-62
2021/04/11 08:49:11;;;;;;;3.22;2.47;;;16.60;96.10;;;17.78;45.82;97167.09;5176492;28;20194;-62
2021/04/11 08:51:58;;;;;;;2.40;2.30;;;16.60;95.60;;;17.86;46.82;97171.53;5183753;28;20646;-62
2021/04/11 08:54:51;;;;;;;2.55;2.30;;;16.60;95.80;;;17.95;45.79;97172.56;5182834;28;20707;-62
2021/04/11 08:57:39;;;;;;;2.47;2.30;;;16.70;94.70;;;18.00;45.27;97168.34;5183033;28;20213;-58
2021/04/11 09:00:19;;;;;;;2.83;2.63;;;16.60;94.10;;;18.00;43.83;97162.31;5183801;28;20199;-61
2021/04/11 09:03:46;;;;;;;2.40;2.30;;;16.50;93.50;;;17.89;44.54;97171.59;5183185;28;20200;-62
2021/04/11 09:06:34;;;;;;;2.42;2.20;;;16.50;93.70;;;17.85;45.01;97167.19;5163343;28;20666;-62
2021/04/11 09:09:35;;;;;;;3.63;2.28;;;16.50;93.90;;;17.95;45.22;97169.97;5166294;28;20230;-63
2021/04/11 09:12:21;;;;;;;2.63;2.42;;;16.50;94.10;;;18.01;44.93;97156.28;5177979;28;20257;-60
2021/04/11 09:15:08;;;;;;;2.28;2.15;;;16.60;93.90;;;18.01;43.85;97157.13;5181256;28;20310;-62
2021/04/11 09:18:12;;;;;;;2.25;2.03;;;16.70;93.00;;;18.11;44.48;97157.28;5178994;28;20659;-60
2021/04/11 09:21:06;;;;;;;2.53;2.33;;;16.80;93.50;;;18.17;43.58;97162.53;5171999;28;20195;-63
2021/04/11 09:23:48;;;;;;;2.25;2.15;;;16.90;93.00;;;18.32;43.55;97167.97;5181154;28;20561;-62
2021/04/11 09:27:06;;;;;;;2.50;2.05;;;16.90;92.70;;;18.55;41.94;97165.72;5183885;28;20313;-58
2021/04/11 09:29:52;;;;;;;2.40;2.20;;;17.00;91.90;;;18.42;42.18;97166.38;5170726;28;20207;-60
2021/04/11 09:33:03;;;;;;;2.50;2.30;;;17.00;92.00;;;18.43;42.84;97165.56;5173921;28;20198;-58
2021/04/11 09:35:42;;;;;;;2.85;1.95;;;17.00;92.20;;;18.40;41.97;97161.22;5175753;28;20301;-60
2021/04/11 09:38:45;;;;;;;2.47;2.28;;;17.10;91.30;;;18.51;42.43;97163.94;5182793;28;20197;-62
2021/04/11 09:42:06;;;;;;;2.30;2.15;;;17.00;91.90;;;18.50;42.67;97161.34;5170612;28;20284;-61
2021/04/11 09:45:01;;;;;;;3.83;3.42;;;17.00;91.90;;;18.43;43.01;97170.75;5131690;28;20240;-60
2021/04/11 09:48:10;;;;;;;5.88;5.50;;;17.00;92.30;;;18.38;42.84;97162.88;5141477;28;20696;-61
2021/04/11 09:50:50;;;;;;;4.45;4.15;;;16.90;91.80;;;18.43;42.47;97162.97;5119524;28;20232;-61
2021/04/11 09:53:46;;;;;;;2.78;2.58;;;17.10;91.50;;;18.47;42.02;97169.91;5184535;28;20321;-61
2021/04/11 09:56:31;;;;;;;1.88;1.77;;;17.10;91.40;;;18.59;41.62;97167.50;5167381;28;20774;-61
2021/04/11 09:59:46;;;;;;;2.30;2.10;;;17.10;91.40;;;18.75;40.80;97163.47;5177373;28;20286;-61
2021/04/11 10:02:34;;;;;;;8.02;7.15;;;17.20;91.00;;;18.83;41.56;97164.44;5136972;28;20195;-64
2021/04/11 10:05:18;;;;;;;3.45;3.15;;;17.30;91.30;;;18.89;41.54;97155.88;5181658;28;20309;-60
2021/04/11 10:08:20;;;;;;;2.70;2.50;;;17.60;91.00;;;19.04;41.61;97156.06;5187143;28;20219;-61
2021/04/11 10:11:09;;;;;;;8.43;7.90;;;17.70;90.90;;;19.26;40.22;97154.59;5167874;28;20195;-60
2021/04/11 10:14:04;;;;;;;3.25;3.00;;;17.80;90.10;;;19.23;40.55;97151.97;5175985;28;20577;-61
2021/04/11 10:16:50;;;;;;;2.67;2.47;;;17.80;90.00;;;19.22;41.19;97154.53;5184218;28;20203;-61
2021/04/11 10:19:37;;;;;;;3.38;2.33;;;17.90;90.60;;;19.35;41.02;97149.50;5185221;28;20211;-61
2021/04/11 10:22:30;;;;;;;2.55;2.30;;;18.00;90.10;;;19.55;40.63;97144.53;5188789;28;20195;-61
2021/04/11 10:25:16;;;;;;;4.88;4.30;;;18.10;90.20;;;19.84;39.85;97140.53;5183549;28;20222;-61
2021/04/11 10:28:01;;;;;;;2.80;2.60;;;18.30;89.30;;;20.03;40.48;97137.25;5187217;28;20547;-61
2021/04/11 10:30:35;;;;;;;19.95;17.98;;;18.70;90.10;;;20.10;40.05;97139.00;5186254;28;20633;-61
2021/04/11 10:33:15;;;;;;;4.43;3.95;;;18.80;89.50;;;19.95;39.82;97125.94;5184419;28;20275;-61
2021/04/11 10:35:57;;;;;;;3.03;2.40;;;18.80;89.10;;;20.29;39.39;97127.06;5182365;28;20214;-61
2021/04/11 10:38:33;;;;;;;2.40;2.20;;;19.10;87.90;;;20.31;38.73;97116.66;5168852;28;20199;-61
2021/04/11 10:41:34;;;;;;;2.22;2.03;;;19.20;86.80;;;20.41;39.55;97118.47;5185328;28;20260;-61
2021/04/11 10:44:28;;;;;;;2.22;2.03;;;19.40;87.70;;;20.46;39.06;97121.97;5184643;28;20202;-61
2021/04/11 10:47:23;;;;;;;2.25;2.15;;;19.40;86.80;;;20.39;38.47;97115.00;5183855;28;20209;-61
2021/04/11 10:50:08;;;;;;;2.70;2.38;;;19.30;85.70;;;20.54;36.72;97115.09;5184640;28;20230;-61
2021/04/11 10:53:01;;;;;;;3.05;2.25;;;19.30;83.30;;;20.44;36.81;97108.97;5184944;28;20210;-62
2021/04/11 10:55:50;;;;;;;3.95;2.85;;;19.40;83.00;;;20.31;37.98;97109.75;5182437;28;20210;-61
2021/04/11 10:59:16;;;;;;;2.75;2.40;;;19.20;84.10;;;20.41;37.22;97105.50;5185154;28;20207;-61
2021/04/11 11:02:04;;;;;;;2.50;2.15;;;19.30;82.90;;;20.40;37.13;97104.63;5172694;28;20194;-61
2021/04/11 11:05:01;;;;;;;2.63;2.42;;;19.20;82.80;;;20.24;37.46;97100.19;5180512;28;20607;-61
2021/04/11 11:07:52;;;;;;;1.95;1.85;;;19.20;83.40;;;20.17;37.43;97098.41;5185071;28;20199;-61
2021/04/11 11:10:43;;;;;;;3.20;2.53;;;19.10;82.50;;;20.25;37.14;97096.72;5181341;28;20570;-61
2021/04/11 11:13:29;;;;;;;2.28;2.05;;;19.10;82.20;;;20.20;37.44;97096.72;5167128;28;20667;-61
2021/04/11 11:16:15;;;;;;;2.30;2.10;;;19.20;82.40;;;20.13;37.80;97087.13;5171167;28;20219;-61
2021/04/11 11:19:28;;;;;;;2.58;2.10;;;19.10;83.10;;;19.90;37.90;97083.50;5166757;28;20282;-61
2021/04/11 11:22:17;;;;;;;2.50;2.30;;;18.90;82.60;;;19.79;38.25;97084.28;5122576;28;20297;-61
2021/04/11 11:25:09;;;;;;;2.90;2.28;;;18.80;82.90;;;19.84;38.16;97088.66;5195140;22;20227;-61
2021/04/11 11:28:20;;;;;;;3.00;2.20;;;18.80;83.00;;;19.78;38.63;97073.91;5181556;28;20203;-61
2021/04/11 11:31:30;;;;;;;2.58;2.38;;;18.90;84.40;;;19.96;39.31;97083.56;5166508;28;20207;-61
2021/04/11 11:34:19;;;;;;;2.28;2.08;;;19.00;84.50;;;19.99;38.22;97080.97;5154491;28;20630;-61
2021/04/11 11:37:08;;;;;;;2.65;2.40;;;19.10;82.40;;;19.91;38.41;97082.63;5147231;28;20232;-61
2021/04/11 11:39:44;;;;;;;2.28;1.95;;;19.00;82.90;;;19.96;38.37;97083.56;5146318;28;20204;-61